createdAt,value
2023-08-17T00:01:13.095Z,1.90
2023-08-17T00:03:41.230Z,2.40
2023-08-17T00:06:09.379Z,2.40
2023-08-17T00:08:38.936Z,2.10
2023-08-17T00:11:07.016Z,2.70
2023-08-17T00:13:35.152Z,2.55
2023-08-17T00:16:03.638Z,2.50
2023-08-17T00:18:31.682Z,2.00
2023-08-17T00:20:59.624Z,1.83
2023-08-17T00:23:27.618Z,2.20
2023-08-17T00:25:56.984Z,2.30
2023-08-17T00:28:24.964Z,1.90
2023-08-17T00:30:53.816Z,2.55
2023-08-17T00:33:21.966Z,2.10
2023-08-17T00:35:50.381Z,2.45
2023-08-17T00:38:18.494Z,2.13
2023-08-17T00:40:46.779Z,2.13
2023-08-17T00:43:16.297Z,2.47
2023-08-17T00:45:48.486Z,2.00
2023-08-17T00:48:18.057Z,2.65
2023-08-17T00:50:49.312Z,2.13
2023-08-17T00:53:17.509Z,2.22
2023-08-17T00:55:46.755Z,2.83
2023-08-17T00:58:16.320Z,2.10
2023-08-17T01:00:44.397Z,2.47
2023-08-17T01:03:12.443Z,2.45
2023-08-17T01:05:41.344Z,2.22
2023-08-17T01:08:09.398Z,2.75
2023-08-17T01:10:45.986Z,2.72
2023-08-17T01:13:23.252Z,2.22
2023-08-17T01:15:56.589Z,2.63
2023-08-17T01:18:28.755Z,3.15
2023-08-17T01:20:57.701Z,3.15
2023-08-17T01:23:27.156Z,2.97
2023-08-17T01:25:55.357Z,2.65
2023-08-17T01:28:24.167Z,2.80
2023-08-17T01:30:58.032Z,2.78
2023-08-17T01:33:31.192Z,2.90
2023-08-17T01:36:07.012Z,2.78
2023-08-17T01:38:38.334Z,2.55
2023-08-17T01:41:08.269Z,3.25
2023-08-17T01:43:36.826Z,2.80
2023-08-17T01:46:04.908Z,2.70
2023-08-17T01:48:32.915Z,2.35
2023-08-17T01:51:00.993Z,2.80
2023-08-17T01:53:28.942Z,2.55
2023-08-17T01:55:58.180Z,2.60
2023-08-17T01:58:26.143Z,2.53
2023-08-17T02:00:54.228Z,2.85
2023-08-17T02:03:22.339Z,2.65
2023-08-17T02:05:50.562Z,2.58
2023-08-17T02:08:18.534Z,3.50
2023-08-17T02:10:46.437Z,3.00
2023-08-17T02:13:18.273Z,2.80
2023-08-17T02:15:46.596Z,3.20
2023-08-17T02:18:14.470Z,2.58
2023-08-17T02:20:42.447Z,3.05
2023-08-17T02:23:10.402Z,3.00
2023-08-17T02:25:40.328Z,3.13
2023-08-17T02:28:08.452Z,2.50
2023-08-17T02:30:37.754Z,2.97
2023-08-17T02:33:06.302Z,3.03
2023-08-17T02:35:34.243Z,3.50
2023-08-17T02:38:02.201Z,3.40
2023-08-17T02:40:30.294Z,3.25
2023-08-17T02:42:58.171Z,2.60
2023-08-17T02:45:26.239Z,2.83
2023-08-17T02:47:55.682Z,3.55
2023-08-17T02:50:23.831Z,3.65
2023-08-17T02:52:51.793Z,3.25
2023-08-17T02:55:20.001Z,2.97
2023-08-17T02:57:48.503Z,3.00
2023-08-17T03:00:16.936Z,3.13
2023-08-17T03:02:44.838Z,3.20
2023-08-17T03:05:14.033Z,2.88
2023-08-17T03:07:41.874Z,3.33
2023-08-17T03:10:10.025Z,3.50
2023-08-17T03:12:38.181Z,3.08
2023-08-17T03:15:07.917Z,2.78
2023-08-17T03:17:35.794Z,3.35
2023-08-17T03:20:03.904Z,3.00
2023-08-17T03:22:33.214Z,2.72
2023-08-17T03:25:01.083Z,2.88
2023-08-17T03:27:29.786Z,3.38
2023-08-17T03:29:57.784Z,4.30
2023-08-17T03:32:25.549Z,3.45
2023-08-17T03:34:53.332Z,3.20
2023-08-17T03:37:21.495Z,3.35
2023-08-17T03:39:50.699Z,3.00
2023-08-17T03:42:18.541Z,4.03
2023-08-17T03:44:46.641Z,3.28
2023-08-17T03:47:15.492Z,3.83
2023-08-17T03:49:43.306Z,2.50
2023-08-17T03:52:11.373Z,2.60
2023-08-17T03:54:39.173Z,2.70
2023-08-17T03:57:09.165Z,3.30
2023-08-17T03:59:37.053Z,2.63
2023-08-17T04:02:04.977Z,2.85
2023-08-17T04:04:33.442Z,3.55
2023-08-17T04:07:01.257Z,3.08
2023-08-17T04:09:29.155Z,2.75
2023-08-17T04:11:58.516Z,3.28
2023-08-17T04:14:27.667Z,4.20
2023-08-17T04:16:56.618Z,4.30
2023-08-17T04:19:24.641Z,3.08
2023-08-17T04:21:52.488Z,2.70
2023-08-17T04:24:20.435Z,3.50
2023-08-17T04:26:48.468Z,5.18
2023-08-17T04:29:16.405Z,3.10
2023-08-17T04:31:46.694Z,3.10
2023-08-17T04:34:14.534Z,2.90
2023-08-17T04:36:42.622Z,3.20
2023-08-17T04:39:11.078Z,3.13
2023-08-17T04:41:39.014Z,3.45
2023-08-17T04:44:07.395Z,3.40
2023-08-17T04:46:35.299Z,3.47
2023-08-17T04:49:04.820Z,9.50
2023-08-17T04:51:32.715Z,3.95
2023-08-17T04:54:00.772Z,2.92
2023-08-17T04:56:29.165Z,3.60
2023-08-17T04:58:57.057Z,3.15
2023-08-17T05:01:25.097Z,3.15
2023-08-17T05:03:53.961Z,3.40
2023-08-17T05:06:23.404Z,3.95
2023-08-17T05:08:51.562Z,3.40
2023-08-17T05:11:19.603Z,3.90
2023-08-17T05:13:47.618Z,4.22
2023-08-17T05:16:15.570Z,4.38
2023-08-17T05:18:43.529Z,4.32
2023-08-17T05:21:11.377Z,3.90
2023-08-17T05:23:40.620Z,4.55
2023-08-17T05:26:09.736Z,4.07
2023-08-17T05:28:37.834Z,3.85
2023-08-17T05:31:07.525Z,3.85
2023-08-17T05:33:35.427Z,5.25
2023-08-17T05:36:03.503Z,4.05
2023-08-17T05:38:31.342Z,4.13
2023-08-17T05:41:00.998Z,4.07
2023-08-17T05:43:28.834Z,4.00
2023-08-17T05:46:00.266Z,4.20
2023-08-17T05:48:28.360Z,4.07
2023-08-17T05:50:57.541Z,3.50
2023-08-17T05:53:25.851Z,3.60
2023-08-17T05:55:53.743Z,4.22
2023-08-17T05:58:23.077Z,4.25
2023-08-17T06:00:51.086Z,4.22
2023-08-17T06:03:19.284Z,3.65
2023-08-17T06:05:47.153Z,4.47
2023-08-17T06:08:14.989Z,4.50
2023-08-17T06:10:42.847Z,3.70
2023-08-17T06:13:10.863Z,4.22
2023-08-17T06:15:40.073Z,4.47
2023-08-17T06:18:07.992Z,3.75
2023-08-17T06:20:35.824Z,4.03
2023-08-17T06:23:04.111Z,3.70
2023-08-17T06:25:32.422Z,3.95
2023-08-17T06:28:00.281Z,3.47
2023-08-17T06:30:28.404Z,3.72
2023-08-17T06:32:57.606Z,3.78
2023-08-17T06:35:25.584Z,3.95
2023-08-17T06:37:56.905Z,3.45
2023-08-17T06:40:24.836Z,3.78
2023-08-17T06:42:53.353Z,3.85
2023-08-17T06:45:21.820Z,3.42
2023-08-17T06:47:49.814Z,3.72
2023-08-17T06:50:19.273Z,3.15
2023-08-17T06:52:47.337Z,3.60
2023-08-17T06:55:15.675Z,3.47
2023-08-17T06:57:43.677Z,4.28
2023-08-17T07:00:13.294Z,3.85
2023-08-17T07:02:53.277Z,3.50
2023-08-17T07:05:24.988Z,3.67
2023-08-17T07:07:54.142Z,3.90
2023-08-17T07:10:22.544Z,3.88
2023-08-17T07:12:50.534Z,4.05
2023-08-17T07:15:18.421Z,3.63
2023-08-17T07:17:46.536Z,3.85
2023-08-17T07:20:20.914Z,4.65
2023-08-17T07:22:50.468Z,3.72
2023-08-17T07:25:18.512Z,3.95
2023-08-17T07:27:46.401Z,3.85
2023-08-17T07:30:15.099Z,3.75
2023-08-17T07:32:43.005Z,4.13
2023-08-17T07:35:10.796Z,3.92
2023-08-17T07:37:38.730Z,3.75
2023-08-17T07:40:09.539Z,4.15
2023-08-17T07:42:38.855Z,4.15
2023-08-17T07:45:08.616Z,3.78
2023-08-17T07:47:38.104Z,4.10
2023-08-17T07:50:07.008Z,3.92
2023-08-17T07:52:34.999Z,3.95
2023-08-17T07:55:03.080Z,4.13
2023-08-17T07:57:32.267Z,4.30
2023-08-17T08:00:00.373Z,4.15
2023-08-17T08:02:28.448Z,4.13
2023-08-17T08:04:56.735Z,4.43
2023-08-17T08:07:24.904Z,5.22
2023-08-17T08:09:53.059Z,4.32
2023-08-17T08:12:20.907Z,4.55
2023-08-17T08:14:50.447Z,3.95
2023-08-17T08:17:18.264Z,4.43
2023-08-17T08:19:46.382Z,4.05
2023-08-17T08:22:14.287Z,4.10
2023-08-17T08:24:43.340Z,4.00
2023-08-17T08:27:12.687Z,4.03
2023-08-17T08:29:41.363Z,4.80
2023-08-17T08:32:10.563Z,5.20
2023-08-17T08:34:38.474Z,4.07
2023-08-17T08:37:06.434Z,3.95
2023-08-17T08:39:34.303Z,4.30
2023-08-17T08:42:02.343Z,4.45
2023-08-17T08:44:30.426Z,4.75
2023-08-17T08:46:59.210Z,4.40
2023-08-17T08:49:30.202Z,4.50
2023-08-17T08:52:01.981Z,3.50
2023-08-17T08:54:31.780Z,3.72
2023-08-17T08:57:03.622Z,4.00
2023-08-17T08:59:32.880Z,3.58
2023-08-17T09:02:01.307Z,3.67
2023-08-17T09:04:30.900Z,4.20
2023-08-17T09:06:59.552Z,3.83
2023-08-17T09:09:30.280Z,3.15
2023-08-17T09:11:58.730Z,3.05
2023-08-17T09:14:26.658Z,2.90
2023-08-17T09:16:54.500Z,3.17
2023-08-17T09:19:22.464Z,3.13
2023-08-17T09:21:51.859Z,3.30
2023-08-17T09:24:20.036Z,2.83
2023-08-17T09:26:48.017Z,2.55
2023-08-17T09:29:20.402Z,2.50
2023-08-17T09:31:48.547Z,2.90
2023-08-17T09:34:17.170Z,2.70
2023-08-17T09:36:48.561Z,2.50
2023-08-17T09:39:19.166Z,3.15
2023-08-17T09:41:47.226Z,2.45
2023-08-17T09:44:15.075Z,2.20
2023-08-17T09:46:46.188Z,2.10
2023-08-17T09:49:14.002Z,2.45
2023-08-17T09:51:44.559Z,2.45
2023-08-17T09:54:22.240Z,2.22
2023-08-17T09:56:52.141Z,2.80
2023-08-17T09:59:20.687Z,2.58
2023-08-17T10:01:56.681Z,2.83
2023-08-17T10:04:25.982Z,3.00
2023-08-17T10:06:59.344Z,2.97
2023-08-17T10:09:38.672Z,2.83
2023-08-17T10:12:12.394Z,2.83
2023-08-17T10:14:47.855Z,2.85
2023-08-17T10:17:21.507Z,2.92
2023-08-17T10:19:53.843Z,3.10
2023-08-17T10:22:32.977Z,2.92
2023-08-17T10:25:02.861Z,3.08
2023-08-17T10:27:31.536Z,3.13
2023-08-17T10:30:00.866Z,2.88
2023-08-17T10:32:30.613Z,2.58
2023-08-17T10:34:59.619Z,3.22
2023-08-17T10:37:28.026Z,3.00
2023-08-17T10:39:55.976Z,3.30
2023-08-17T10:42:36.320Z,2.90
2023-08-17T10:45:30.374Z,2.90
2023-08-17T10:48:37.823Z,3.05
2023-08-17T10:51:07.446Z,2.50
2023-08-17T10:53:40.102Z,2.45
2023-08-17T10:56:14.927Z,2.42
2023-08-17T10:58:46.350Z,2.40
2023-08-17T11:01:15.234Z,2.53
2023-08-17T11:03:44.452Z,2.70
2023-08-17T11:06:19.849Z,2.95
2023-08-17T11:08:56.634Z,3.53
2023-08-17T11:11:25.171Z,3.13
2023-08-17T11:13:57.475Z,3.47
2023-08-17T11:16:26.034Z,2.53
2023-08-17T11:18:54.185Z,3.88
2023-08-17T11:21:22.466Z,2.83
2023-08-17T11:23:50.245Z,3.10
2023-08-17T11:26:18.435Z,2.70
2023-08-17T11:28:46.464Z,5.28
2023-08-17T11:31:16.671Z,3.45
2023-08-17T11:33:45.931Z,3.03
2023-08-17T11:36:13.944Z,3.22
2023-08-17T11:38:44.598Z,2.92
2023-08-17T11:43:44.639Z,3.45
2023-08-17T11:46:13.722Z,3.15
2023-08-17T11:48:43.312Z,3.25
2023-08-17T11:51:11.396Z,2.80
2023-08-17T11:53:40.364Z,2.88
2023-08-17T11:56:10.494Z,3.00
2023-08-17T11:58:43.650Z,3.30
2023-08-17T12:01:13.233Z,3.45
2023-08-17T12:03:43.588Z,3.30
2023-08-17T12:06:16.193Z,2.90
2023-08-17T12:08:46.734Z,2.60
2023-08-17T12:11:15.195Z,3.03
2023-08-17T12:13:43.853Z,3.63
2023-08-17T12:16:16.662Z,3.10
2023-08-17T12:18:47.581Z,2.80
2023-08-17T12:21:15.498Z,3.33
2023-08-17T12:23:43.736Z,3.47
2023-08-17T12:26:11.626Z,2.88
2023-08-17T12:28:42.183Z,2.85
2023-08-17T12:31:09.972Z,2.42
2023-08-17T12:33:37.759Z,2.78
2023-08-17T12:36:07.896Z,3.45
2023-08-17T12:38:35.941Z,3.20
2023-08-17T12:41:06.946Z,3.38
2023-08-17T12:43:35.307Z,3.83
2023-08-17T12:46:03.261Z,3.20
2023-08-17T12:48:36.233Z,2.88
2023-08-17T12:51:05.639Z,2.83
2023-08-17T12:53:34.946Z,3.20
2023-08-17T12:56:03.010Z,3.47
2023-08-17T12:58:30.951Z,3.38
2023-08-17T13:00:58.891Z,3.30
2023-08-17T13:03:27.024Z,3.00
2023-08-17T13:05:55.048Z,2.80
2023-08-17T13:08:22.965Z,2.95
2023-08-17T13:10:52.197Z,2.42
2023-08-17T13:13:20.007Z,2.60
2023-08-17T13:15:48.061Z,2.17
2023-08-17T13:18:16.649Z,2.95
2023-08-17T13:20:44.634Z,3.17
2023-08-17T13:23:12.885Z,3.25
2023-08-17T13:25:40.961Z,3.72
2023-08-17T13:28:10.338Z,2.53
2023-08-17T13:30:39.886Z,3.47
2023-08-17T13:33:08.091Z,3.10
2023-08-17T13:35:36.363Z,2.58
2023-08-17T13:38:05.150Z,2.78
2023-08-17T13:40:34.735Z,2.70
2023-08-17T13:43:04.121Z,2.47
2023-08-17T13:45:35.449Z,2.85
2023-08-17T13:48:04.301Z,2.53
2023-08-17T13:50:32.526Z,2.53
2023-08-17T13:53:01.479Z,3.35
2023-08-17T13:55:30.339Z,2.47
2023-08-17T13:57:59.268Z,2.63
2023-08-17T14:00:27.671Z,2.55
2023-08-17T14:02:57.182Z,2.72
2023-08-17T14:05:25.250Z,2.60
2023-08-17T14:07:53.144Z,3.30
2023-08-17T14:10:32.892Z,2.60
2023-08-17T14:13:06.785Z,2.35
2023-08-17T14:15:34.846Z,2.80
2023-08-17T14:18:04.828Z,3.15
2023-08-17T14:20:32.781Z,2.67
2023-08-17T14:23:00.693Z,2.33
2023-08-17T14:25:29.125Z,2.95
2023-08-17T14:27:57.015Z,2.55
2023-08-17T14:30:25.632Z,2.78
2023-08-17T14:32:53.780Z,2.72
2023-08-17T14:35:22.973Z,2.70
2023-08-17T14:37:51.120Z,2.50
2023-08-17T14:40:19.639Z,2.85
2023-08-17T14:42:47.608Z,2.55
2023-08-17T14:45:15.470Z,3.33
2023-08-17T14:47:43.856Z,2.95
2023-08-17T14:50:12.153Z,3.60
2023-08-17T14:52:41.575Z,3.20
2023-08-17T14:55:10.205Z,3.05
2023-08-17T14:57:38.168Z,3.20
2023-08-17T15:00:07.176Z,3.90
2023-08-17T15:02:35.327Z,3.45
2023-08-17T15:05:03.244Z,3.28
2023-08-17T15:10:06.032Z,3.90
2023-08-17T15:12:34.082Z,3.20
2023-08-17T15:15:02.047Z,3.90
2023-08-17T15:17:29.989Z,4.90
2023-08-17T15:19:58.246Z,4.32
2023-08-17T15:22:26.260Z,3.35
2023-08-17T15:24:54.289Z,5.25
2023-08-17T15:27:23.668Z,4.82
2023-08-17T15:29:51.598Z,4.43
2023-08-17T15:32:19.639Z,4.35
2023-08-17T15:34:47.544Z,4.72
2023-08-17T15:37:15.507Z,4.18
2023-08-17T15:39:43.397Z,4.07
2023-08-17T15:42:11.330Z,4.57
2023-08-17T15:44:40.711Z,3.60
2023-08-17T15:47:08.654Z,4.40
2023-08-17T15:49:36.478Z,3.17
2023-08-17T15:52:06.243Z,4.05
2023-08-17T15:54:37.088Z,3.17
2023-08-17T15:57:05.993Z,4.00
2023-08-17T15:59:34.221Z,3.80
2023-08-17T16:02:03.589Z,3.70
2023-08-17T16:04:31.495Z,3.50
2023-08-17T16:06:59.401Z,4.43
2023-08-17T16:09:30.618Z,4.53
2023-08-17T16:11:59.160Z,4.78
2023-08-17T16:14:27.221Z,4.30
2023-08-17T16:16:57.112Z,4.13
2023-08-17T16:19:27.199Z,3.67
2023-08-17T16:21:55.116Z,3.70
2023-08-17T16:26:53.925Z,4.18
2023-08-17T16:29:21.856Z,3.72
2023-08-17T16:32:01.668Z,5.55
2023-08-17T16:34:31.784Z,5.13
2023-08-17T16:37:00.546Z,4.35
2023-08-17T16:39:29.079Z,4.70
2023-08-17T16:41:58.358Z,4.80
2023-08-17T16:44:28.271Z,4.95
2023-08-17T16:46:56.641Z,4.90
2023-08-17T16:49:29.813Z,4.53
2023-08-17T16:52:00.379Z,4.90
2023-08-17T16:54:28.441Z,4.53
2023-08-17T16:56:56.588Z,4.68
2023-08-17T16:59:24.391Z,4.15
2023-08-17T17:01:52.296Z,4.28
2023-08-17T17:04:20.340Z,4.03
2023-08-17T17:06:48.266Z,4.45
2023-08-17T17:09:17.694Z,4.80
2023-08-17T17:11:45.762Z,4.32
2023-08-17T17:14:14.105Z,4.30
2023-08-17T17:16:42.169Z,4.45
2023-08-17T17:19:10.170Z,4.53
2023-08-17T17:21:38.215Z,4.85
2023-08-17T17:24:06.682Z,3.85
2023-08-17T17:26:37.667Z,4.38
2023-08-17T17:29:06.033Z,4.90
2023-08-17T17:31:34.217Z,5.72
2023-08-17T17:34:02.995Z,4.25
2023-08-17T17:36:31.417Z,4.85
2023-08-17T17:38:59.544Z,5.85
2023-08-17T17:41:27.522Z,4.63
2023-08-17T17:43:58.792Z,3.95
2023-08-17T17:46:27.659Z,3.17
2023-08-17T17:48:55.902Z,4.78
2023-08-17T17:51:24.547Z,4.43
2023-08-17T17:53:52.355Z,4.60
2023-08-17T17:56:20.416Z,5.32
2023-08-17T17:58:48.777Z,7.97
2023-08-17T18:01:18.148Z,5.18
2023-08-17T18:03:46.179Z,4.57
2023-08-17T18:06:14.148Z,4.15
2023-08-17T18:08:42.108Z,3.47
2023-08-17T18:11:10.322Z,4.20
2023-08-17T18:13:38.431Z,3.72
2023-08-17T18:16:06.693Z,3.42
2023-08-17T18:18:38.044Z,3.30
2023-08-17T18:21:06.628Z,3.50
2023-08-17T18:23:36.117Z,3.25
2023-08-17T18:26:04.236Z,2.70
2023-08-17T18:28:33.004Z,2.97
2023-08-17T18:31:02.087Z,3.20
2023-08-17T18:33:30.298Z,3.03
2023-08-17T18:35:59.565Z,2.72
2023-08-17T18:38:27.630Z,3.63
2023-08-17T18:40:55.471Z,3.35
2023-08-17T18:43:23.622Z,2.72
2023-08-17T18:45:51.442Z,2.90
2023-08-17T18:48:19.420Z,2.78
2023-08-17T18:50:47.621Z,3.60
2023-08-17T18:53:16.916Z,3.72
2023-08-17T18:55:45.521Z,3.00
2023-08-17T18:58:13.746Z,2.78
2023-08-17T19:00:42.124Z,3.42
2023-08-17T19:03:10.200Z,4.38
2023-08-17T19:05:40.280Z,3.83
2023-08-17T19:08:08.438Z,4.60
2023-08-17T19:10:38.194Z,4.22
2023-08-17T19:13:06.421Z,3.45
2023-08-17T19:15:35.016Z,2.95
2023-08-17T19:18:03.300Z,3.08
2023-08-17T19:20:32.802Z,3.65
2023-08-17T19:23:01.145Z,3.13
2023-08-17T19:25:30.256Z,2.60
2023-08-17T19:28:00.375Z,3.20
2023-08-17T19:30:28.987Z,3.30
2023-08-17T19:33:00.430Z,3.40
2023-08-17T19:35:29.854Z,3.42
2023-08-17T19:37:58.576Z,3.45
2023-08-17T19:40:26.870Z,3.17
2023-08-17T19:42:54.761Z,3.22
2023-08-17T19:45:24.368Z,3.65
2023-08-17T19:47:52.371Z,3.00
2023-08-17T19:50:21.223Z,2.88
2023-08-17T19:52:50.296Z,3.47
2023-08-17T19:55:19.104Z,3.80
2023-08-17T19:57:47.210Z,3.25
2023-08-17T20:00:16.566Z,3.85
2023-08-17T20:02:47.372Z,3.42
2023-08-17T20:05:15.696Z,3.85
2023-08-17T20:07:43.908Z,3.03
2023-08-17T20:10:12.944Z,3.03
2023-08-17T20:12:41.497Z,3.58
2023-08-17T20:15:10.894Z,3.65
2023-08-17T20:17:39.689Z,3.65
2023-08-17T20:20:13.097Z,4.03
2023-08-17T20:22:41.871Z,4.03
2023-08-17T20:25:13.679Z,3.50
2023-08-17T20:27:43.473Z,3.75
2023-08-17T20:30:12.968Z,3.67
2023-08-17T20:32:41.915Z,4.00
2023-08-17T20:35:12.178Z,3.97
2023-08-17T20:37:41.769Z,4.45
2023-08-17T20:40:10.781Z,4.45
2023-08-17T20:42:38.592Z,4.22
2023-08-17T20:45:07.300Z,4.05
2023-08-17T20:47:37.959Z,4.00
2023-08-17T20:50:08.736Z,4.22
2023-08-17T20:52:39.035Z,4.68
2023-08-17T20:55:08.287Z,4.35
2023-08-17T20:57:38.412Z,4.30
2023-08-17T21:00:08.443Z,3.53
2023-08-17T21:02:36.786Z,4.88
2023-08-17T21:05:04.867Z,4.75
2023-08-17T21:07:33.041Z,4.07
2023-08-17T21:10:02.846Z,4.60
2023-08-17T21:12:30.955Z,4.43
2023-08-17T21:14:59.306Z,4.40
2023-08-17T21:17:28.855Z,4.82
2023-08-17T21:19:57.226Z,5.05
2023-08-17T21:22:25.141Z,4.85
2023-08-17T21:24:53.047Z,5.13
2023-08-17T21:27:23.184Z,5.20
2023-08-17T21:29:51.726Z,5.20
2023-08-17T21:32:20.234Z,5.95
2023-08-17T21:34:48.220Z,7.63
2023-08-17T21:37:26.645Z,5.63
2023-08-17T21:39:56.254Z,6.45
2023-08-17T21:42:26.524Z,5.88
2023-08-17T21:44:54.453Z,5.00
2023-08-17T21:47:22.480Z,6.15
2023-08-17T21:49:50.509Z,5.60
2023-08-17T21:52:19.149Z,5.43
2023-08-17T21:54:47.176Z,6.30
2023-08-17T21:57:15.137Z,6.53
2023-08-17T21:59:45.101Z,6.35
2023-08-17T22:02:13.033Z,6.13
2023-08-17T22:04:40.974Z,5.80
2023-08-17T22:07:08.806Z,6.05
2023-08-17T22:09:36.712Z,6.57
2023-08-17T22:12:05.128Z,6.45
2023-08-17T22:14:33.234Z,5.90
2023-08-17T22:17:02.658Z,5.40
2023-08-17T22:19:30.744Z,6.38
2023-08-17T22:21:58.610Z,5.93
2023-08-17T22:24:34.788Z,6.15
2023-08-17T22:27:09.410Z,6.90
2023-08-17T22:29:37.355Z,5.93
2023-08-17T22:32:06.934Z,6.68
2023-08-17T22:34:34.764Z,7.00
2023-08-17T22:37:02.705Z,6.40
2023-08-17T22:39:30.578Z,7.10
2023-08-17T22:41:59.100Z,6.72
2023-08-17T22:44:26.932Z,6.22
2023-08-17T22:46:55.292Z,6.53
2023-08-17T22:49:25.825Z,6.05
2023-08-17T22:51:53.945Z,6.75
2023-08-17T22:54:22.453Z,7.20
2023-08-17T22:56:50.491Z,5.93
2023-08-17T22:59:19.784Z,6.82
2023-08-17T23:01:48.390Z,7.32
2023-08-17T23:04:16.794Z,6.97
2023-08-17T23:06:46.969Z,7.93
2023-08-17T23:09:14.942Z,6.78
2023-08-17T23:11:43.089Z,6.95
2023-08-17T23:14:11.294Z,7.55
2023-08-17T23:16:39.409Z,8.50
2023-08-17T23:19:07.373Z,8.05
2023-08-17T23:21:36.048Z,7.15
2023-08-17T23:24:06.303Z,6.78
2023-08-17T23:26:34.300Z,6.88
2023-08-17T23:29:02.516Z,5.90
2023-08-17T23:31:30.739Z,6.22
2023-08-17T23:33:59.148Z,6.22
2023-08-17T23:36:27.954Z,5.90
2023-08-17T23:38:56.235Z,7.10
2023-08-17T23:41:28.476Z,7.15
2023-08-17T23:43:56.640Z,6.72
2023-08-17T23:46:30.624Z,6.15
2023-08-17T23:48:58.522Z,7.00
2023-08-17T23:51:26.591Z,6.32
2023-08-17T23:53:54.614Z,6.97
2023-08-17T23:56:22.668Z,6.32
2023-08-17T23:58:52.263Z,5.38
